Time;durP1;ratioP1;P1;durP2;ratioP2;P2;SDS_P1;SDS_P2;PMS_P1;PMS_P2;Temp;Humidity;BMP_temperature;BMP_pressure;BME280_temperature;BME280_humidity;BME280_pressure;Samples;Min_cycle;Max_cycle;Signal;HPM_P1;HPM_P2
2023/05/07 15:27:23;;;;;;;0.10;0.10;;;;;;;21.69;64.60;101917.13;5088077;27;20365;-78
2023/05/07 15:29:49;;;;;;;0.10;0.10;;;;;;;21.70;63.80;101924.28;5087459;28;20064;-80
2023/05/07 15:32:18;;;;;;;0.10;0.10;;;;;;;21.59;63.61;101927.50;5093217;28;20551;-81
2023/05/07 15:34:47;;;;;;;0.10;0.10;;;;;;;21.45;63.45;101931.69;5077827;28;20028;-80
2023/05/07 15:37:19;;;;;;;0.20;0.20;;;;;;;21.33;63.86;101934.97;5095596;27;20028;-79
2023/05/07 15:39:45;;;;;;;0.10;0.10;;;;;;;21.20;64.27;101932.00;5085450;28;20437;-81
2023/05/07 15:42:11;;;;;;;0.10;0.10;;;;;;;21.14;64.21;101927.78;5092706;28;20028;-81
2023/05/07 15:44:38;;;;;;;0.63;0.40;;;;;;;21.11;63.72;101927.94;5079579;28;20038;-80
2023/05/07 15:47:04;;;;;;;0.10;0.10;;;;;;;21.10;63.98;101926.19;5087064;28;20058;-80
2023/05/07 15:49:30;;;;;;;0.10;0.10;;;;;;;21.09;63.40;101928.94;5078445;28;20086;-79
2023/05/07 15:51:56;;;;;;;0.10;0.10;;;;;;;21.07;63.33;101928.16;5098320;28;20042;-79
2023/05/07 15:54:26;;;;;;;0.10;0.10;;;;;;;21.08;63.58;101927.19;5099093;28;20032;-79
2023/05/07 15:56:53;;;;;;;0.47;0.47;;;;;;;21.07;63.78;101930.84;5100107;28;20445;-79
2023/05/07 15:59:22;;;;;;;0.10;0.10;;;;;;;21.10;63.53;101931.56;5090969;28;20378;-81
2023/05/07 16:01:57;;;;;;;0.00;0.00;;;;;;;21.07;63.62;101926.34;5090723;28;20066;-81
2023/05/07 16:04:24;;;;;;;0.35;0.35;;;;;;;21.09;63.84;101934.34;5083600;28;20036;-81
2023/05/07 16:06:50;;;;;;;0.38;0.38;;;;;;;21.12;63.89;101927.00;5097208;28;20040;-81
2023/05/07 16:09:16;;;;;;;0.10;0.10;;;;;;;21.19;64.04;101930.25;5090496;28;20047;-80
2023/05/07 16:11:42;;;;;;;0.30;0.30;;;;;;;21.27;64.02;101932.59;5096448;28;20420;-80
2023/05/07 16:14:13;;;;;;;0.10;0.10;;;;;;;21.36;64.01;101937.56;5099005;28;20034;-80
2023/05/07 16:16:39;;;;;;;0.00;0.00;;;;;;;21.42;64.22;101925.56;5083034;28;20035;-80
2023/05/07 16:19:12;;;;;;;0.10;0.10;;;;;;;21.45;63.87;101933.53;5093909;28;20043;-79
2023/05/07 16:21:41;;;;;;;0.15;0.15;;;;;;;21.44;63.67;101921.00;5106415;28;20032;-80
2023/05/07 16:24:08;;;;;;;0.10;0.10;;;;;;;21.37;63.78;101927.63;5092052;28;20079;-79
2023/05/07 16:26:34;;;;;;;0.10;0.10;;;;;;;21.31;63.76;101924.28;5092515;28;20039;-81
2023/05/07 16:29:03;;;;;;;0.00;0.00;;;;;;;21.25;63.71;101929.97;5097314;28;20072;-80
2023/05/07 16:31:30;;;;;;;0.15;0.15;;;;;;;21.20;64.10;101934.72;5098326;28;20433;-81
2023/05/07 16:33:56;;;;;;;0.10;0.10;;;;;;;21.11;64.56;101938.72;5104027;28;20058;-80
2023/05/07 16:36:22;;;;;;;0.10;0.10;;;;;;;21.05;64.11;101938.09;5091580;28;20071;-81
2023/05/07 16:38:48;;;;;;;0.30;0.30;;;;;;;20.97;64.24;101942.06;5075615;28;20488;-82
2023/05/07 16:41:14;;;;;;;0.35;0.35;;;;;;;20.91;64.43;101939.66;5072172;28;20505;-81
2023/05/07 16:43:40;;;;;;;0.03;0.03;;;;;;;20.89;64.39;101938.84;5091297;28;20032;-81
2023/05/07 16:46:06;;;;;;;0.10;0.10;;;;;;;20.88;64.25;101941.59;5072415;28;20386;-80
2023/05/07 16:48:33;;;;;;;0.85;0.85;;;;;;;20.84;64.33;101940.88;5081418;28;20025;-80
2023/05/07 16:50:59;;;;;;;0.10;0.10;;;;;;;20.78;64.38;101939.31;5085261;28;20029;-80
2023/05/07 16:53:25;;;;;;;1.45;0.85;;;;;;;20.72;64.38;101936.03;5075804;28;20037;-81
2023/05/07 16:55:55;;;;;;;0.20;0.20;;;;;;;20.67;64.57;101939.78;5084027;28;20044;-80
2023/05/07 16:58:21;;;;;;;0.10;0.10;;;;;;;20.64;64.67;101929.16;5067808;28;20052;-81
2023/05/07 17:00:48;;;;;;;0.10;0.10;;;;;;;20.63;64.74;101931.91;5081806;28;20021;-80
2023/05/07 17:03:14;;;;;;;0.10;0.10;;;;;;;20.63;65.04;101929.22;5075401;28;20477;-80
2023/05/07 17:05:40;;;;;;;0.20;0.20;;;;;;;20.65;65.04;101920.13;5079850;28;20515;-80
2023/05/07 17:08:06;;;;;;;0.30;0.30;;;;;;;20.69;65.01;101926.25;5070904;28;20083;-81
2023/05/07 17:10:33;;;;;;;0.22;0.22;;;;;;;20.72;65.22;101925.28;5077702;28;20033;-80
2023/05/07 17:12:59;;;;;;;0.10;0.10;;;;;;;20.73;64.98;101929.72;5086044;28;20036;-82
2023/05/07 17:15:25;;;;;;;0.10;0.10;;;;;;;20.75;65.26;101933.19;5076497;28;20084;-80
2023/05/07 17:17:51;;;;;;;0.10;0.10;;;;;;;20.77;65.04;101947.47;5078292;28;20070;-80
2023/05/07 17:20:17;;;;;;;0.28;0.28;;;;;;;20.79;65.30;101943.75;5087554;28;20032;-80
2023/05/07 17:22:43;;;;;;;0.20;0.20;;;;;;;20.80;65.14;101939.28;5076998;28;20068;-82
2023/05/07 17:25:09;;;;;;;0.05;0.05;;;;;;;20.79;64.84;101951.84;5089715;28;20023;-80
2023/05/07 17:27:36;;;;;;;0.25;0.22;;;;;;;20.77;64.91;101947.47;5070263;28;20036;-79
2023/05/07 17:30:02;;;;;;;0.10;0.10;;;;;;;20.75;64.84;101938.56;5069054;28;20045;-80
2023/05/07 17:32:29;;;;;;;0.20;0.20;;;;;;;20.75;64.88;101936.78;5061195;28;20090;-80
2023/05/07 17:34:55;;;;;;;0.10;0.10;;;;;;;20.76;64.77;101938.53;5064796;28;20506;-81
2023/05/07 17:37:21;;;;;;;0.20;0.20;;;;;;;20.77;64.69;101944.78;5059166;28;20083;-81
2023/05/07 17:39:47;;;;;;;0.10;0.10;;;;;;;20.78;64.73;101949.22;5061911;28;20029;-79
2023/05/07 17:42:14;;;;;;;0.10;0.10;;;;;;;20.76;64.76;101949.31;5060776;28;20037;-79
2023/05/07 17:44:41;;;;;;;0.15;0.15;;;;;;;20.76;64.73;101948.41;5070735;28;20029;-81
2023/05/07 17:47:07;;;;;;;0.03;0.03;;;;;;;20.74;64.92;101951.19;5072735;28;20020;-79
2023/05/07 17:49:35;;;;;;;0.20;0.20;;;;;;;20.67;65.12;101960.44;5080242;28;20434;-81
2023/05/07 17:52:01;;;;;;;0.40;0.40;;;;;;;20.63;65.10;101951.63;5066182;28;21130;-83
2023/05/07 17:54:29;;;;;;;0.10;0.10;;;;;;;20.61;65.16;101967.00;5059183;28;20445;-83
2023/05/07 17:56:55;;;;;;;0.40;0.40;;;;;;;20.56;65.28;101969.03;5067351;28;20044;-81
2023/05/07 17:59:21;;;;;;;0.10;0.10;;;;;;;20.49;65.40;101970.22;5064290;28;20047;-82
2023/05/07 18:01:47;;;;;;;0.10;0.10;;;;;;;20.44;65.57;101975.81;5068588;28;20031;-82
2023/05/07 18:04:13;;;;;;;0.10;0.10;;;;;;;20.39;65.57;101985.00;5071599;28;20054;-81
2023/05/07 18:06:40;;;;;;;0.10;0.10;;;;;;;20.32;65.70;101985.28;5074651;28;20025;-82
2023/05/07 18:09:07;;;;;;;0.10;0.10;;;;;;;20.27;65.92;101984.59;5075240;28;20023;-81
2023/05/07 18:11:33;;;;;;;0.10;0.10;;;;;;;20.22;65.78;101986.63;5066560;28;20051;-80
2023/05/07 18:14:01;;;;;;;0.20;0.20;;;;;;;20.19;65.98;101986.75;5066831;28;20595;-82
2023/05/07 18:16:27;;;;;;;0.20;0.20;;;;;;;20.13;66.08;101990.56;5066947;28;20107;-82
2023/05/07 18:18:54;;;;;;;0.10;0.10;;;;;;;20.10;66.17;101995.19;5065738;28;20084;-81
2023/05/07 18:21:20;;;;;;;0.25;0.25;;;;;;;20.07;66.39;101992.66;5089294;28;20063;-82
2023/05/07 18:23:48;;;;;;;0.10;0.10;;;;;;;20.02;66.32;101993.69;5083264;28;20382;-81
2023/05/07 18:26:14;;;;;;;0.10;0.10;;;;;;;19.99;66.50;102001.91;5079754;28;20032;-83
2023/05/07 18:28:40;;;;;;;0.10;0.10;;;;;;;19.97;66.58;101995.72;5068139;28;20024;-82
2023/05/07 18:31:07;;;;;;;0.10;0.10;;;;;;;19.94;66.74;102003.91;5070225;28;20024;-80
2023/05/07 18:33:33;;;;;;;0.10;0.10;;;;;;;19.91;66.59;102004.03;5067138;28;20032;-82
2023/05/07 18:35:59;;;;;;;0.20;0.20;;;;;;;19.88;66.57;101999.66;5066211;28;20043;-81
2023/05/07 18:38:25;;;;;;;0.10;0.10;;;;;;;19.84;66.77;102002.56;5069334;28;20020;-81
2023/05/07 18:40:55;;;;;;;0.10;0.10;;;;;;;19.80;67.04;102011.63;5082604;28;20036;-81
2023/05/07 18:43:21;;;;;;;0.50;0.50;;;;;;;19.77;67.04;102006.38;5063114;28;20059;-82
2023/05/07 18:45:50;;;;;;;0.10;0.10;;;;;;;19.75;67.20;102002.88;5066050;28;20040;-82
2023/05/07 18:48:16;;;;;;;0.20;0.20;;;;;;;19.69;67.16;102006.72;5070187;28;20096;-82
2023/05/07 18:50:43;;;;;;;0.10;0.10;;;;;;;19.64;67.22;102001.50;5071151;28;20044;-81
2023/05/07 18:53:10;;;;;;;0.13;0.13;;;;;;;19.62;67.28;102011.44;5063152;28;20025;-82
2023/05/07 18:55:36;;;;;;;0.10;0.10;;;;;;;19.60;67.65;102007.94;5065813;28;20460;-82
2023/05/07 18:58:05;;;;;;;0.10;0.10;;;;;;;19.61;67.47;102011.50;5067746;28;20111;-80
2023/05/07 19:00:31;;;;;;;0.35;0.35;;;;;;;19.59;67.47;102022.31;5059793;28;20037;-81
2023/05/07 19:02:58;;;;;;;0.10;0.10;;;;;;;19.57;67.50;102016.13;5062085;28;20021;-83
2023/05/07 19:05:24;;;;;;;0.90;0.38;;;;;;;19.56;67.53;102025.09;5066456;28;20032;-79
2023/05/07 19:07:50;;;;;;;0.38;0.38;;;;;;;19.53;67.49;102020.72;5065832;28;20082;-82
2023/05/07 19:10:17;;;;;;;0.10;0.10;;;;;;;19.52;67.60;102012.72;5063688;28;20047;-82
2023/05/07 19:12:46;;;;;;;0.20;0.20;;;;;;;19.49;67.83;102023.59;5067561;28;20490;-80
2023/05/07 19:15:15;;;;;;;0.10;0.10;;;;;;;19.46;67.75;102013.84;5065388;28;20032;-82
2023/05/07 19:17:41;;;;;;;0.10;0.10;;;;;;;19.43;67.89;102013.06;5068098;28;20060;-82
2023/05/07 19:20:08;;;;;;;0.30;0.30;;;;;;;19.38;67.80;102019.50;5061245;28;20036;-80
2023/05/07 19:22:37;;;;;;;0.65;0.65;;;;;;;19.34;67.81;102020.56;5061941;28;20033;-82
2023/05/07 19:25:04;;;;;;;0.90;0.90;;;;;;;19.28;67.90;102020.81;5070598;28;20112;-81
2023/05/07 19:27:32;;;;;;;0.10;0.10;;;;;;;19.23;67.95;102020.97;5064776;28;20036;-82
2023/05/07 19:30:02;;;;;;;1.75;1.15;;;;;;;19.19;68.07;102023.81;5062965;28;20028;-83
2023/05/07 19:32:28;;;;;;;0.03;0.03;;;;;;;19.11;68.12;102023.25;5062217;28;20025;-81
2023/05/07 19:34:57;;;;;;;0.20;0.20;;;;;;;19.06;68.26;102047.59;5060845;28;20058;-81
2023/05/07 19:37:26;;;;;;;0.10;0.10;;;;;;;19.02;68.30;102049.50;5060273;28;20127;-83
2023/05/07 19:39:53;;;;;;;0.03;0.03;;;;;;;18.99;68.45;102051.44;5054473;28;20635;-83
2023/05/07 19:42:22;;;;;;;0.10;0.10;;;;;;;18.97;68.66;102059.53;5058268;28;20049;-81
2023/05/07 19:44:48;;;;;;;0.10;0.10;;;;;;;18.95;68.69;102060.53;5063244;28;20025;-83
2023/05/07 19:47:17;;;;;;;0.10;0.10;;;;;;;18.92;68.76;102066.91;5062125;28;20044;-82
2023/05/07 19:49:44;;;;;;;0.10;0.10;;;;;;;18.88;68.83;102060.72;5061851;28;20029;-82
2023/05/07 19:52:10;;;;;;;0.10;0.10;;;;;;;18.85;68.98;102065.31;5058267;28;20481;-82
2023/05/07 19:54:36;;;;;;;0.10;0.10;;;;;;;18.82;68.98;102077.03;5066080;28;20025;-81
2023/05/07 19:57:03;;;;;;;0.00;0.00;;;;;;;18.81;69.08;102069.06;5059708;28;20650;-84
2023/05/07 19:59:32;;;;;;;0.00;0.00;;;;;;;18.81;69.07;102079.78;5069455;28;20028;-83
2023/05/07 20:01:58;;;;;;;0.10;0.10;;;;;;;18.82;69.32;102081.56;5069284;28;20098;-83
2023/05/07 20:04:29;;;;;;;0.10;0.10;;;;;;;18.83;69.30;102085.97;5084942;28;20044;-80
2023/05/07 20:06:56;;;;;;;0.00;0.00;;;;;;;18.84;69.55;102095.78;5074204;28;20529;-81
2023/05/07 20:09:22;;;;;;;0.00;0.00;;;;;;;18.84;69.37;102087.72;5081226;28;20024;-82
2023/05/07 20:11:48;;;;;;;0.10;0.10;;;;;;;18.87;69.36;102095.69;5074526;28;20029;-80
2023/05/07 20:14:14;;;;;;;0.00;0.00;;;;;;;18.87;69.35;102088.50;5077435;28;20041;-81
2023/05/07 20:16:40;;;;;;;0.08;0.08;;;;;;;18.87;69.38;102091.19;5089796;28;20074;-81
2023/05/07 20:19:07;;;;;;;0.63;0.63;;;;;;;18.86;69.56;102091.25;5078616;28;20092;-81
2023/05/07 20:21:33;;;;;;;0.20;0.20;;;;;;;18.88;69.42;102097.44;5088867;28;20039;-80
2023/05/07 20:24:02;;;;;;;0.00;0.00;;;;;;;18.87;69.56;102087.63;5077660;28;20501;-81
2023/05/07 20:26:44;;;;;;;0.00;0.00;;;;;;;18.90;69.78;102101.88;5073845;28;20037;-82
2023/05/07 20:29:11;;;;;;;0.10;0.10;;;;;;;18.87;69.70;102106.44;5078662;28;20028;-81
2023/05/07 20:31:37;;;;;;;0.10;0.10;;;;;;;18.86;69.51;102104.69;5073166;28;20028;-81
2023/05/07 20:34:04;;;;;;;0.05;0.05;;;;;;;18.85;69.73;102105.59;5069968;28;20020;-81
2023/05/07 20:36:30;;;;;;;0.10;0.10;;;;;;;18.83;69.63;102111.03;5074521;28;20031;-82
2023/05/07 20:38:56;;;;;;;1.30;0.50;;;;;;;18.81;69.47;102114.69;5075831;28;20037;-81
2023/05/07 20:41:24;;;;;;;0.10;0.10;;;;;;;18.78;69.56;102106.72;5074228;28;20055;-80
2023/05/07 20:43:50;;;;;;;0.10;0.10;;;;;;;18.74;69.52;102106.84;5073446;28;20155;-81
2023/05/07 20:46:17;;;;;;;0.00;0.00;;;;;;;18.73;69.71;102098.84;5071111;28;20032;-80
2023/05/07 20:48:43;;;;;;;0.00;0.00;;;;;;;18.71;69.81;102104.25;5064173;28;20533;-80
2023/05/07 20:51:12;;;;;;;0.10;0.10;;;;;;;18.70;69.79;102107.88;5073006;28;20078;-80
2023/05/07 20:53:39;;;;;;;0.55;0.55;;;;;;;18.64;69.70;102100.06;5073807;28;20028;-80
2023/05/07 20:56:05;;;;;;;0.10;0.10;;;;;;;18.59;69.81;102108.25;5061018;28;20056;-79
2023/05/07 20:58:31;;;;;;;0.10;0.10;;;;;;;18.55;69.78;102105.72;5067147;28;20047;-80
2023/05/07 21:00:58;;;;;;;0.03;0.03;;;;;;;18.52;69.96;102113.88;5080000;28;20051;-79
2023/05/07 21:03:24;;;;;;;0.10;0.10;;;;;;;18.47;69.91;102113.13;5087085;28;20056;-81
2023/05/07 21:05:54;;;;;;;0.00;0.00;;;;;;;18.41;69.77;102120.47;5081152;28;20078;-79
2023/05/07 21:08:21;;;;;;;0.45;0.45;;;;;;;18.35;69.93;102117.97;5069791;28;20027;-80
2023/05/07 21:10:47;;;;;;;1.50;0.50;;;;;;;18.30;69.86;102111.03;5073557;28;20108;-80
2023/05/07 21:13:14;;;;;;;0.10;0.10;;;;;;;18.24;69.86;102114.75;5077181;28;20028;-81
2023/05/07 21:15:41;;;;;;;0.08;0.08;;;;;;;18.22;70.25;102122.00;5076259;28;20020;-82
2023/05/07 21:18:08;;;;;;;0.10;0.10;;;;;;;18.18;70.01;102123.91;5080835;28;20052;-82
2023/05/07 21:20:35;;;;;;;0.93;0.40;;;;;;;18.13;69.71;102125.84;5066310;28;20033;-82
2023/05/07 21:23:02;;;;;;;0.10;0.10;;;;;;;18.07;69.83;102126.03;5081430;28;20034;-80
2023/05/07 21:25:28;;;;;;;0.10;0.10;;;;;;;17.99;69.85;102123.56;5087405;28;20041;-81
2023/05/07 21:27:55;;;;;;;0.10;0.10;;;;;;;17.95;69.93;102135.31;5076078;28;20017;-81
2023/05/07 21:30:21;;;;;;;0.00;0.00;;;;;;;17.91;70.20;102139.00;5084491;28;20036;-79
2023/05/07 21:32:47;;;;;;;0.10;0.10;;;;;;;17.83;70.07;102132.97;5074115;28;20043;-80
2023/05/07 21:35:13;;;;;;;0.10;0.10;;;;;;;17.78;70.12;102131.31;5082650;28;20033;-81
2023/05/07 21:37:39;;;;;;;0.10;0.10;;;;;;;17.73;70.04;102137.75;5076742;28;20028;-81
2023/05/07 21:40:06;;;;;;;0.10;0.10;;;;;;;17.68;70.21;102129.81;5085985;28;20036;-80
2023/05/07 21:42:32;;;;;;;0.10;0.10;;;;;;;17.63;70.37;102126.41;5076408;28;20102;-79
2023/05/07 21:44:59;;;;;;;0.10;0.10;;;;;;;17.62;70.76;102132.72;5081408;28;20031;-79
2023/05/07 21:47:25;;;;;;;0.10;0.10;;;;;;;17.59;70.41;102141.69;5075176;28;20024;-78
2023/05/07 21:49:51;;;;;;;0.10;0.10;;;;;;;17.56;70.57;102140.94;5082911;28;20062;-80
2023/05/07 21:52:17;;;;;;;0.10;0.10;;;;;;;17.52;70.50;102144.59;5087526;28;20029;-80
2023/05/07 21:54:43;;;;;;;0.10;0.10;;;;;;;17.48;70.59;102146.47;5076362;28;20024;-80
2023/05/07 21:57:09;;;;;;;0.10;0.10;;;;;;;17.44;70.70;102142.13;5080986;28;20084;-80
2023/05/07 21:59:36;;;;;;;0.10;0.10;;;;;;;17.41;70.39;102137.75;5090154;28;20046;-80
2023/05/07 22:02:02;;;;;;;0.10;0.10;;;;;;;17.38;70.60;102140.50;5087971;28;21686;-81
2023/05/07 22:04:28;;;;;;;0.15;0.15;;;;;;;17.36;70.81;102145.03;5076054;28;20037;-79
2023/05/07 22:06:55;;;;;;;0.10;0.10;;;;;;;17.33;70.56;102139.75;5082519;28;20025;-78
2023/05/07 22:09:21;;;;;;;0.10;0.10;;;;;;;17.33;70.61;102142.44;5087929;28;20033;-79
2023/05/07 22:11:47;;;;;;;0.10;0.10;;;;;;;17.30;70.64;102147.88;5079314;28;20035;-79
2023/05/07 22:14:13;;;;;;;0.08;0.08;;;;;;;17.27;70.77;102139.91;5082136;28;20046;-78
2023/05/07 22:16:39;;;;;;;0.10;0.10;;;;;;;17.28;70.85;102136.31;5077480;28;20033;-78
2023/05/07 22:19:05;;;;;;;0.10;0.10;;;;;;;17.26;71.26;102149.75;5080551;28;20050;-80
2023/05/07 22:21:32;;;;;;;0.10;0.10;;;;;;;17.28;70.93;102144.34;5083570;28;20024;-81
2023/05/07 22:24:01;;;;;;;0.00;0.00;;;;;;;17.31;71.23;102149.66;5080559;28;20041;-78
2023/05/07 22:26:27;;;;;;;0.00;0.00;;;;;;;17.30;71.07;102146.06;5082449;28;20032;-78
2023/05/07 22:28:53;;;;;;;0.10;0.10;;;;;;;17.29;71.01;102151.47;5077748;28;20036;-80
2023/05/07 22:31:19;;;;;;;0.05;0.05;;;;;;;17.25;70.96;102142.66;5074548;28;20032;-79
2023/05/07 22:33:45;;;;;;;4.78;0.75;;;;;;;17.21;70.85;102146.34;5073612;28;20047;-80
2023/05/07 22:36:11;;;;;;;0.10;0.10;;;;;;;17.18;71.16;102145.53;5071113;28;20029;-80
2023/05/07 22:38:37;;;;;;;0.08;0.08;;;;;;;17.13;71.05;102135.84;5084701;28;20077;-81
2023/05/07 22:41:03;;;;;;;0.10;0.10;;;;;;;17.11;70.97;102134.13;5070615;28;20490;-79
2023/05/07 22:43:30;;;;;;;0.10;0.10;;;;;;;17.08;71.12;102129.69;5075240;28;20039;-80
2023/05/07 22:45:59;;;;;;;0.57;0.57;;;;;;;17.06;70.86;102136.91;5071705;28;20529;-80
2023/05/07 22:48:26;;;;;;;0.08;0.08;;;;;;;17.03;71.10;102142.34;5065872;28;20052;-80
2023/05/07 22:50:53;;;;;;;0.10;0.10;;;;;;;17.00;71.09;102131.72;5083537;28;20106;-80
2023/05/07 22:53:19;;;;;;;0.10;0.10;;;;;;;16.96;71.16;102141.63;5072341;28;20054;-79
2023/05/07 22:55:45;;;;;;;0.05;0.05;;;;;;;16.94;70.88;102142.59;5076836;28;20040;-80
2023/05/07 22:58:11;;;;;;;0.10;0.10;;;;;;;16.91;71.18;102145.31;5067042;28;20616;-80
2023/05/07 23:00:38;;;;;;;0.10;0.10;;;;;;;16.88;71.01;102143.59;5083061;28;20025;-79
2023/05/07 23:03:04;;;;;;;0.20;0.20;;;;;;;16.88;71.31;102148.06;5078409;28;20032;-78
2023/05/07 23:05:30;;;;;;;0.10;0.10;;;;;;;16.86;71.23;102149.91;5080323;28;20057;-79
2023/05/07 23:07:57;;;;;;;0.10;0.10;;;;;;;16.81;71.20;102142.88;5095550;28;20039;-80
2023/05/07 23:10:23;;;;;;;0.10;0.10;;;;;;;16.79;71.11;102143.84;5091134;28;20092;-79
2023/05/07 23:12:50;;;;;;;0.10;0.10;;;;;;;16.76;71.03;102143.91;5092441;28;20092;-79
2023/05/07 23:15:17;;;;;;;0.05;0.05;;;;;;;16.74;71.16;102141.25;5093486;28;20039;-79
2023/05/07 23:17:44;;;;;;;0.10;0.10;;;;;;;16.74;71.47;102141.25;5088929;28;20068;-78
2023/05/07 23:20:11;;;;;;;0.10;0.10;;;;;;;16.74;71.44;102143.94;5085569;28;20028;-79
2023/05/07 23:22:37;;;;;;;0.10;0.10;;;;;;;16.71;71.04;102144.03;5085213;28;20033;-79
2023/05/07 23:25:04;;;;;;;0.10;0.10;;;;;;;16.68;71.26;102141.41;5084794;28;20047;-79
2023/05/07 23:27:31;;;;;;;0.10;0.10;;;;;;;16.65;71.07;102146.84;5079204;28;20032;-79
2023/05/07 23:29:57;;;;;;;0.30;0.30;;;;;;;16.64;71.42;102147.78;5092518;28;20024;-80
2023/05/07 23:32:23;;;;;;;0.10;0.10;;;;;;;16.63;71.49;102138.84;5085520;28;20085;-79
2023/05/07 23:34:50;;;;;;;0.10;0.10;;;;;;;16.62;71.25;102146.91;5084509;28;20036;-80
2023/05/07 23:37:16;;;;;;;0.05;0.05;;;;;;;16.59;71.30;102147.00;5081320;28;20032;-79
2023/05/07 23:39:42;;;;;;;0.10;0.10;;;;;;;16.56;71.22;102147.06;5080721;28;20100;-80
2023/05/07 23:42:09;;;;;;;0.17;0.17;;;;;;;16.55;71.45;102150.66;5088344;28;20051;-79
2023/05/07 23:44:35;;;;;;;0.10;0.10;;;;;;;16.56;71.83;102152.41;5083922;28;20029;-80
2023/05/07 23:47:01;;;;;;;0.00;0.00;;;;;;;16.56;71.30;102147.06;5086958;28;20009;-79
2023/05/07 23:49:27;;;;;;;0.30;0.30;;;;;;;16.52;71.59;102151.59;5086001;28;20036;-80
2023/05/07 23:51:53;;;;;;;0.10;0.10;;;;;;;16.47;71.00;102149.06;5078500;28;20028;-80
2023/05/07 23:54:19;;;;;;;0.10;0.10;;;;;;;16.42;71.18;102145.59;5079360;28;20569;-79
2023/05/07 23:56:46;;;;;;;0.30;0.30;;;;;;;16.40;71.27;102144.78;5075456;28;20028;-80
2023/05/07 23:59:12;;;;;;;0.10;0.10;;;;;;;16.36;71.16;102140.38;5083768;28;20032;-80
